Time,TemperatureF,DewpointF,PressureIn,WindDirection,WindDirectionDegrees,WindSpeedMPH,WindSpeedGustMPH,Humidity,HourlyPrecipIn,Conditions,Clouds,dailyrainin,SoftwareType,DateUTC
2013-04-19 00:03:00,84.6,70.2,29.58,ESE,113,6.0,6.9,62,0.00,,,0.00,WUHU216HW,2013-04-18 21:03:00,
2013-04-19 00:08:00,84.4,70.0,29.58,East,90,7.4,7.4,62,0.00,,,0.00,WUHU216HW,2013-04-18 21:08:00,
2013-04-19 00:13:00,84.4,70.0,29.58,East,90,5.6,7.4,62,0.00,,,0.00,WUHU216HW,2013-04-18 21:13:00,
2013-04-19 00:18:00,84.6,70.2,29.58,East,90,4.0,7.4,62,0.00,,,0.00,WUHU216HW,2013-04-18 21:18:00,
2013-04-19 00:23:00,84.6,70.2,29.58,ESE,113,4.7,7.2,62,0.00,,,0.00,WUHU216HW,2013-04-18 21:23:00,
2013-04-19 00:28:00,84.6,70.2,29.58,East,90,3.1,7.2,62,0.00,,,0.00,WUHU216HW,2013-04-18 21:28:00,
2013-04-19 00:33:00,84.6,70.2,29.58,ENE,68,4.9,6.5,62,0.00,,,0.00,WUHU216HW,2013-04-18 21:33:00,
2013-04-19 00:38:00,84.4,69.6,29.58,East,90,5.4,6.5,61,0.00,,,0.00,WUHU216HW,2013-04-18 21:38:00,
2013-04-19 00:43:00,84.4,69.6,29.57,East,90,5.1,6.3,61,0.00,,,0.00,WUHU216HW,2013-04-18 21:43:00,
2013-04-19 00:48:00,84.4,70.0,29.58,ENE,68,2.9,6.3,62,0.00,,,0.00,WUHU216HW,2013-04-18 21:48:00,
2013-04-19 00:53:00,84.4,70.5,29.58,ENE,68,3.4,5.4,63,0.00,,,0.00,WUHU216HW,2013-04-18 21:53:00,
2013-04-19 00:58:00,84.4,70.5,29.58,ENE,68,4.0,5.1,63,0.00,,,0.00,WUHU216HW,2013-04-18 21:58:00,
2013-04-19 01:03:00,84.4,70.0,29.58,East,90,4.0,5.4,62,0.00,,,0.00,WUHU216HW,2013-04-18 22:03:00,
2013-04-19 01:08:00,84.4,70.0,29.59,East,90,2.2,4.7,62,0.00,,,0.00,WUHU216HW,2013-04-18 22:08:00,
2013-04-19 01:13:00,84.6,70.2,29.60,East,90,0.4,4.7,62,0.00,,,0.00,WUHU216HW,2013-04-18 22:13:00,
2013-04-19 01:18:00,84.6,69.3,29.60,NNW,338,0.2,3.4,60,0.00,,,0.00,WUHU216HW,2013-04-18 22:18:00,
2013-04-19 01:23:00,84.6,67.7,29.61,NW,315,1.1,3.6,57,0.00,,,0.00,WUHU216HW,2013-04-18 22:23:00,
2013-04-19 01:28:00,85.0,67.5,29.60,NW,315,2.2,3.6,56,0.00,,,0.00,WUHU216HW,2013-04-18 22:28:00,
2013-04-19 01:33:00,85.0,67.0,29.60,West,270,0.9,3.6,55,0.00,,,0.00,WUHU216HW,2013-04-18 22:33:00,
2013-04-19 01:38:00,85.0,67.0,29.59,ESE,113,0.7,3.6,55,0.00,,,0.00,WUHU216HW,2013-04-18 22:38:00,
2013-04-19 01:43:00,85.0,67.0,29.58,SE,135,0.7,1.8,55,0.00,,,0.00,WUHU216HW,2013-04-18 22:43:00,
2013-04-19 01:48:00,85.0,66.4,29.58,East,90,4.5,4.7,54,0.00,,,0.00,WUHU216HW,2013-04-18 22:48:00,
2013-04-19 01:53:00,85.0,67.0,29.58,East,90,4.3,5.6,55,0.00,,,0.00,WUHU216HW,2013-04-18 22:53:00,
2013-04-19 01:58:00,85.0,67.0,29.58,ENE,68,3.4,6.3,55,0.00,,,0.00,WUHU216HW,2013-04-18 22:58:00,
2013-04-19 02:03:00,85.0,67.5,29.58,ENE,68,0.4,6.3,56,0.00,,,0.00,WUHU216HW,2013-04-18 23:03:00,
2013-04-19 02:08:00,85.0,68.1,29.59,NW,315,1.8,3.6,57,0.00,,,0.00,WUHU216HW,2013-04-18 23:08:00,
2013-04-19 02:13:00,84.8,67.9,29.59,North,0,3.4,4.0,57,0.00,,,0.00,WUHU216HW,2013-04-18 23:13:00,
2013-04-19 02:18:00,84.8,67.3,29.61,WSW,248,4.3,5.8,56,0.00,,,0.00,WUHU216HW,2013-04-18 23:18:00,
2013-04-19 02:23:00,85.1,66.6,29.61,West,270,7.4,7.4,54,0.00,,,0.00,WUHU216HW,2013-04-18 23:23:00,
2013-04-19 02:28:00,85.1,66.6,29.60,ENE,68,1.1,8.3,54,0.00,,,0.00,WUHU216HW,2013-04-18 23:28:00,
2013-04-19 02:33:00,85.1,66.6,29.60,SSW,203,2.5,8.3,54,0.00,,,0.00,WUHU216HW,2013-04-18 23:33:00,
2013-04-19 02:38:00,85.1,66.6,29.59,SE,135,1.3,3.6,54,0.00,,,0.00,WUHU216HW,2013-04-18 23:38:00,
2013-04-19 02:43:00,85.1,66.1,29.58,East,90,2.5,3.6,53,0.00,,,0.00,WUHU216HW,2013-04-18 23:43:00,
2013-04-19 02:48:00,85.1,66.1,29.57,ESE,113,1.8,2.7,53,0.00,,,0.00,WUHU216HW,2013-04-18 23:48:00,
2013-04-19 02:53:00,85.1,66.1,29.57,ENE,68,3.8,3.8,53,0.00,,,0.00,WUHU216HW,2013-04-18 23:53:00,
2013-04-19 02:58:00,85.1,66.1,29.56,ENE,68,4.9,4.9,53,0.00,,,0.00,WUHU216HW,2013-04-18 23:58:00,
2013-04-19 03:03:00,85.1,67.1,29.56,ESE,113,2.0,5.6,55,0.00,,,0.00,WUHU216HW,2013-04-19 00:03:00,
2013-04-19 03:08:00,85.1,67.1,29.57,ENE,68,1.8,5.6,55,0.00,,,0.00,WUHU216HW,2013-04-19 00:08:00,
2013-04-19 03:13:00,85.1,67.7,29.57,SE,135,1.8,2.7,56,0.00,,,0.00,WUHU216HW,2013-04-19 00:13:00,
2013-04-19 03:18:00,85.1,67.1,29.57,ESE,113,2.9,4.5,55,0.00,,,0.00,WUHU216HW,2013-04-19 00:18:00,
2013-04-19 03:23:00,85.1,67.7,29.57,ENE,68,4.9,6.0,56,0.00,,,0.00,WUHU216HW,2013-04-19 00:23:00,
2013-04-19 03:29:00,85.1,67.7,29.58,NW,315,1.3,6.0,56,0.00,,,0.00,WUHU216HW,2013-04-19 00:29:00,
2013-04-19 03:34:00,85.0,67.0,29.58,ENE,68,1.1,4.5,55,0.00,,,0.00,WUHU216HW,2013-04-19 00:34:00,
2013-04-19 03:38:00,85.0,67.0,29.59,SSW,203,1.6,3.4,55,0.00,,,0.00,WUHU216HW,2013-04-19 00:38:00,
2013-04-19 03:43:00,85.0,67.0,29.60,SSW,203,0.9,2.7,55,0.00,,,0.00,WUHU216HW,2013-04-19 00:43:00,
2013-04-19 03:48:00,85.1,67.1,29.60,WSW,248,1.8,2.5,55,0.00,,,0.00,WUHU216HW,2013-04-19 00:48:00,
2013-04-19 03:53:00,85.1,67.1,29.60,WSW,248,0.0,2.5,55,0.00,,,0.00,WUHU216HW,2013-04-19 00:53:00,
2013-04-19 03:58:00,85.0,66.4,29.60,NNW,338,1.1,2.2,54,0.00,,,0.00,WUHU216HW,2013-04-19 00:58:00,
2013-04-19 04:04:00,85.0,66.0,29.59,NNW,338,0.7,3.4,53,0.00,,,0.00,WUHU216HW,2013-04-19 01:04:00,
2013-04-19 04:09:00,85.0,66.0,29.59,NNE,23,1.1,3.4,53,0.00,,,0.00,WUHU216HW,2013-04-19 01:09:00,
2013-04-19 04:14:00,85.0,66.0,29.58,East,90,3.4,3.4,53,0.00,,,0.00,WUHU216HW,2013-04-19 01:14:00,
2013-04-19 04:19:00,85.0,66.0,29.58,East,90,1.3,3.4,53,0.00,,,0.00,WUHU216HW,2013-04-19 01:19:00,
2013-04-19 04:24:00,85.0,66.4,29.59,East,90,1.8,3.4,54,0.00,,,0.00,WUHU216HW,2013-04-19 01:24:00,
2013-04-19 04:29:00,85.0,67.0,29.58,SE,135,1.8,2.7,55,0.00,,,0.00,WUHU216HW,2013-04-19 01:29:00,
2013-04-19 04:34:00,85.0,67.0,29.59,East,90,0.9,2.5,55,0.00,,,0.00,WUHU216HW,2013-04-19 01:34:00,
2013-04-19 04:39:00,84.8,67.9,29.60,East,90,1.8,2.5,57,0.00,,,0.00,WUHU216HW,2013-04-19 01:39:00,
2013-04-19 04:44:00,84.8,68.4,29.60,SE,135,1.6,2.5,58,0.00,,,0.00,WUHU216HW,2013-04-19 01:44:00,
2013-04-19 04:49:00,84.6,68.2,29.60,ESE,113,0.9,3.1,58,0.00,,,0.00,WUHU216HW,2013-04-19 01:49:00,
2013-04-19 04:54:00,84.6,68.2,29.60,ESE,113,1.8,3.1,58,0.00,,,0.00,WUHU216HW,2013-04-19 01:54:00,
2013-04-19 04:59:00,84.6,68.2,29.60,ESE,113,1.6,3.1,58,0.00,,,0.00,WUHU216HW,2013-04-19 01:59:00,
2013-04-19 05:04:00,84.6,68.2,29.62,WNW,293,1.8,2.9,58,0.00,,,0.00,WUHU216HW,2013-04-19 02:04:00,
2013-04-19 05:09:00,84.4,68.0,29.63,West,270,3.1,3.1,58,0.00,,,0.00,WUHU216HW,2013-04-19 02:09:00,
2013-04-19 05:14:00,84.6,67.7,29.63,NW,315,4.0,4.7,57,0.00,,,0.00,WUHU216HW,2013-04-19 02:14:00,
2013-04-19 05:19:00,84.4,67.5,29.64,West,270,4.3,4.9,57,0.00,,,0.00,WUHU216HW,2013-04-19 02:19:00,
2013-04-19 05:24:00,84.4,67.1,29.65,NW,315,4.7,4.9,56,0.00,,,0.00,WUHU216HW,2013-04-19 02:24:00,
2013-04-19 05:29:00,84.2,66.3,29.65,West,270,1.8,5.4,55,0.00,,,0.00,WUHU216HW,2013-04-19 02:29:00,
2013-04-19 05:34:00,84.1,65.6,29.64,NW,315,1.3,5.4,54,0.00,,,0.00,WUHU216HW,2013-04-19 02:34:00,
2013-04-19 05:39:00,84.1,66.2,29.62,East,90,3.1,3.6,55,0.00,,,0.00,WUHU216HW,2013-04-19 02:39:00,
2013-04-19 05:44:00,84.1,65.6,29.61,ENE,68,2.7,4.7,54,0.00,,,0.00,WUHU216HW,2013-04-19 02:44:00,
2013-04-19 05:49:00,84.2,65.8,29.62,SE,135,1.6,4.7,54,0.00,,,0.00,WUHU216HW,2013-04-19 02:49:00,
2013-04-19 05:54:00,84.4,66.0,29.63,South,180,1.8,3.4,54,0.00,,,0.00,WUHU216HW,2013-04-19 02:54:00,
2013-04-19 05:59:00,84.4,66.0,29.64,SSW,203,2.0,3.8,54,0.00,,,0.00,WUHU216HW,2013-04-19 02:59:00,
2013-04-19 06:04:00,84.6,66.2,29.64,WSW,248,4.9,4.9,54,0.00,,,0.00,WUHU216HW,2013-04-19 03:04:00,
2013-04-19 06:09:00,84.8,66.3,29.65,South,180,2.9,4.9,54,0.00,,,0.00,WUHU216HW,2013-04-19 03:09:00,
2013-04-19 06:14:00,85.0,66.0,29.65,SSW,203,1.8,4.0,53,0.00,,,0.00,WUHU216HW,2013-04-19 03:14:00,
2013-04-19 06:19:00,85.0,66.0,29.65,WNW,293,0.7,3.1,53,0.00,,,0.00,WUHU216HW,2013-04-19 03:19:00,
2013-04-19 06:24:00,85.0,66.4,29.65,WNW,293,1.8,2.5,54,0.00,,,0.00,WUHU216HW,2013-04-19 03:24:00,
2013-04-19 06:29:00,84.8,65.8,29.67,NW,315,5.4,7.6,53,0.00,,,0.00,WUHU216HW,2013-04-19 03:29:00,
2013-04-19 06:34:00,84.2,65.3,29.67,NW,315,5.1,7.6,53,0.00,,,0.00,WUHU216HW,2013-04-19 03:34:00,
2013-04-19 06:39:00,84.1,65.6,29.66,NW,315,5.4,8.5,54,0.00,,,0.00,WUHU216HW,2013-04-19 03:39:00,
2013-04-19 06:44:00,84.2,65.3,29.64,North,0,2.2,8.5,53,0.00,,,0.00,WUHU216HW,2013-04-19 03:44:00,
2013-04-19 06:49:00,84.4,65.4,29.64,NE,45,2.2,5.6,53,0.00,,,0.00,WUHU216HW,2013-04-19 03:49:00,
2013-04-19 06:54:00,84.8,65.8,29.64,NE,45,0.0,3.1,53,0.00,,,0.00,WUHU216HW,2013-04-19 03:54:00,
2013-04-19 06:59:00,84.8,65.8,29.66,West,270,2.9,3.1,53,0.00,,,0.00,WUHU216HW,2013-04-19 03:59:00,
2013-04-19 07:01:00,84.8,65.8,29.67,WSW,248,4.3,4.7,53,0.00,,,0.00,WUHU216HW,2013-04-19 04:01:00,
2013-04-19 07:06:00,84.6,65.6,29.68,West,270,3.8,6.0,53,0.00,,,0.00,WUHU216HW,2013-04-19 04:06:00,
2013-04-19 07:11:00,84.8,65.3,29.68,West,270,5.8,6.9,52,0.00,,,0.00,WUHU216HW,2013-04-19 04:11:00,
2013-04-19 07:16:00,84.8,65.8,29.68,WSW,248,3.4,6.9,53,0.00,,,0.00,WUHU216HW,2013-04-19 04:16:00,
2013-04-19 07:21:00,84.8,65.8,29.68,WSW,248,1.6,6.3,53,0.00,,,0.00,WUHU216HW,2013-04-19 04:21:00,
2013-04-19 07:26:00,85.0,66.0,29.68,SSE,158,3.8,3.8,53,0.00,,,0.00,WUHU216HW,2013-04-19 04:26:00,
2013-04-19 07:31:00,85.3,66.2,29.68,SE,135,2.5,6.3,53,0.00,,,0.00,WUHU216HW,2013-04-19 04:31:00,
2013-04-19 07:36:00,85.7,66.1,29.67,SSE,158,0.0,6.3,52,0.00,,,0.00,WUHU216HW,2013-04-19 04:36:00,
2013-04-19 07:41:00,86.0,65.9,29.66,SSE,158,0.0,4.5,51,0.00,,,0.00,WUHU216HW,2013-04-19 04:41:00,
2013-04-19 07:46:00,86.4,65.7,29.66,SSE,158,1.1,1.1,50,0.00,,,0.00,WUHU216HW,2013-04-19 04:46:00,
2013-04-19 07:51:00,86.8,66.0,29.66,East,90,2.5,4.0,50,0.00,,,0.00,WUHU216HW,2013-04-19 04:51:00,
2013-04-19 07:56:00,87.1,65.7,29.65,SE,135,0.9,4.0,49,0.00,,,0.00,WUHU216HW,2013-04-19 04:56:00,
2013-04-19 08:01:00,87.5,65.3,29.65,East,90,2.5,2.9,48,0.00,,,0.00,WUHU216HW,2013-04-19 05:01:00,
2013-04-19 08:06:00,87.5,64.7,29.64,ENE,68,3.8,5.8,47,0.00,,,0.00,WUHU216HW,2013-04-19 05:06:00,
2013-04-19 08:11:00,87.3,65.9,29.65,ENE,68,3.4,5.8,49,0.00,,,0.00,WUHU216HW,2013-04-19 05:11:00,
2013-04-19 08:16:00,87.5,66.0,29.65,ESE,113,1.6,4.5,49,0.00,,,0.00,WUHU216HW,2013-04-19 05:16:00,
2013-04-19 08:21:00,87.7,66.8,29.65,East,90,3.1,3.4,50,0.00,,,0.00,WUHU216HW,2013-04-19 05:21:00,
2013-04-19 08:26:00,87.8,67.5,29.66,North,0,1.8,3.4,51,0.00,,,0.00,WUHU216HW,2013-04-19 05:26:00,
2013-04-19 08:31:00,88.4,66.8,29.66,East,90,1.1,2.7,49,0.00,,,0.00,WUHU216HW,2013-04-19 05:31:00,
2013-04-19 08:36:00,89.1,66.8,29.66,ESE,113,1.8,2.7,48,0.00,,,0.00,WUHU216HW,2013-04-19 05:36:00,
2013-04-19 08:41:00,89.3,66.3,29.66,ENE,68,3.4,3.4,47,0.00,,,0.00,WUHU216HW,2013-04-19 05:41:00,
2013-04-19 08:46:00,89.3,66.3,29.66,SE,135,2.9,3.6,47,0.00,,,0.00,WUHU216HW,2013-04-19 05:46:00,
2013-04-19 08:51:00,89.3,67.0,29.67,SE,135,5.4,5.4,48,0.00,,,0.00,WUHU216HW,2013-04-19 05:51:00,
2013-04-19 08:56:00,88.9,67.3,29.67,SSE,158,1.8,6.9,49,0.00,,,0.00,WUHU216HW,2013-04-19 05:56:00,
2013-04-19 09:01:00,88.9,66.7,29.67,East,90,1.1,6.9,48,0.00,,,0.00,WUHU216HW,2013-04-19 06:01:00,
2013-04-19 09:06:00,89.3,66.3,29.67,ESE,113,1.6,4.9,47,0.00,,,0.00,WUHU216HW,2013-04-19 06:06:00,
2013-04-19 09:11:00,90.0,66.3,29.66,East,90,2.5,2.9,46,0.00,,,0.00,WUHU216HW,2013-04-19 06:11:00,
2013-04-19 09:16:00,90.5,64.9,29.67,ESE,113,1.8,3.1,43,0.00,,,0.00,WUHU216HW,2013-04-19 06:16:00,
2013-04-19 09:21:00,91.3,65.5,29.67,ESE,113,2.9,3.1,43,0.00,,,0.00,WUHU216HW,2013-04-19 06:21:00,
2013-04-19 09:26:00,91.6,65.8,29.67,East,90,3.4,3.4,43,0.00,,,0.00,WUHU216HW,2013-04-19 06:26:00,
2013-04-19 09:31:00,92.0,66.2,29.67,ENE,68,2.7,4.7,43,0.00,,,0.00,WUHU216HW,2013-04-19 06:31:00,
2013-04-19 09:36:00,92.2,65.0,29.67,ESE,113,2.0,4.9,41,0.00,,,0.00,WUHU216HW,2013-04-19 06:36:00,
2013-04-19 09:41:00,92.3,65.8,29.67,East,90,5.4,5.4,42,0.00,,,0.00,WUHU216HW,2013-04-19 06:41:00,
2013-04-19 09:46:00,92.2,65.0,29.66,ENE,68,4.5,6.3,41,0.00,,,0.00,WUHU216HW,2013-04-19 06:46:00,
2013-04-19 09:51:00,92.0,65.5,29.67,SE,135,5.6,6.3,42,0.00,,,0.00,WUHU216HW,2013-04-19 06:51:00,
2013-04-19 09:56:00,91.8,64.7,29.67,SE,135,2.7,6.3,41,0.00,,,0.00,WUHU216HW,2013-04-19 06:56:00,
2013-04-19 10:01:00,92.0,65.5,29.67,ESE,113,4.7,6.5,42,0.00,,,0.00,WUHU216HW,2013-04-19 07:01:00,
2013-04-19 10:06:00,92.0,65.5,29.67,ESE,113,5.4,6.5,42,0.00,,,0.00,WUHU216HW,2013-04-19 07:06:00,
2013-04-19 10:11:00,91.8,65.3,29.67,SE,135,5.4,6.5,42,0.00,,,0.00,WUHU216HW,2013-04-19 07:11:00,
2013-04-19 10:16:00,91.8,66.0,29.67,ESE,113,4.0,6.3,43,0.00,,,0.00,WUHU216HW,2013-04-19 07:16:00,
2013-04-19 10:21:00,92.0,65.5,29.67,SE,135,4.5,6.3,42,0.00,,,0.00,WUHU216HW,2013-04-19 07:21:00,
2013-04-19 10:26:00,92.2,66.3,29.67,SE,135,3.1,6.9,43,0.00,,,0.00,WUHU216HW,2013-04-19 07:26:00,
2013-04-19 10:31:00,92.3,67.8,29.67,SE,135,6.7,7.6,45,0.00,,,0.00,WUHU216HW,2013-04-19 07:31:00,
2013-04-19 10:36:00,92.3,67.2,29.66,ENE,68,2.5,7.6,44,0.00,,,0.00,WUHU216HW,2013-04-19 07:36:00,
2013-04-19 10:41:00,92.5,66.0,29.67,SSE,158,6.5,7.6,42,0.00,,,0.00,WUHU216HW,2013-04-19 07:41:00,
2013-04-19 10:46:00,92.5,66.6,29.67,SE,135,6.9,7.6,43,0.00,,,0.00,WUHU216HW,2013-04-19 07:46:00,
2013-04-19 10:51:00,92.5,66.0,29.66,ESE,113,4.7,8.7,42,0.00,,,0.00,WUHU216HW,2013-04-19 07:51:00,
2013-04-19 10:56:00,92.3,67.2,29.66,SSE,158,6.9,8.7,44,0.00,,,0.00,WUHU216HW,2013-04-19 07:56:00,
2013-04-19 11:01:00,92.3,66.5,29.66,ESE,113,7.6,8.1,43,0.00,,,0.00,WUHU216HW,2013-04-19 08:01:00,
2013-04-19 11:06:00,92.0,66.8,29.66,SE,135,10.1,10.1,44,0.00,,,0.00,WUHU216HW,2013-04-19 08:06:00,
2013-04-19 11:11:00,91.6,67.2,29.66,SE,135,5.4,10.1,45,0.00,,,0.00,WUHU216HW,2013-04-19 08:11:00,
2013-04-19 11:16:00,91.6,67.2,29.66,SE,135,4.0,10.1,45,0.00,,,0.00,WUHU216HW,2013-04-19 08:16:00,
2013-04-19 11:21:00,91.3,67.4,29.66,SE,135,4.5,7.4,46,0.00,,,0.00,WUHU216HW,2013-04-19 08:21:00,
2013-04-19 11:26:00,90.7,67.0,29.67,SE,135,4.0,6.0,46,0.00,,,0.00,WUHU216HW,2013-04-19 08:26:00,
2013-04-19 11:31:00,90.7,67.6,29.65,SE,135,6.0,6.5,47,0.00,,,0.00,WUHU216HW,2013-04-19 08:31:00,
2013-04-19 11:36:00,91.1,69.2,29.65,SE,135,6.9,8.5,49,0.00,,,0.00,WUHU216HW,2013-04-19 08:36:00,
2013-04-19 11:41:00,91.4,68.2,29.65,SE,135,6.3,8.5,47,0.00,,,0.00,WUHU216HW,2013-04-19 08:41:00,
2013-04-19 11:46:00,91.8,69.2,29.65,East,90,4.0,8.3,48,0.00,,,0.00,WUHU216HW,2013-04-19 08:46:00,
2013-04-19 11:51:00,92.0,70.7,29.65,SE,135,6.3,6.9,50,0.00,,,0.00,WUHU216HW,2013-04-19 08:51:00,
2013-04-19 11:56:00,91.3,69.4,29.64,SE,135,3.8,6.9,49,0.00,,,0.00,WUHU216HW,2013-04-19 08:56:00,
2013-04-19 12:01:00,91.4,70.2,29.64,ESE,113,4.7,6.3,50,0.00,,,0.00,WUHU216HW,2013-04-19 09:01:00,
2013-04-19 12:06:00,91.3,70.0,29.64,SE,135,6.5,7.6,50,0.00,,,0.00,WUHU216HW,2013-04-19 09:06:00,
2013-04-19 12:11:00,90.9,69.8,29.64,SE,135,4.3,7.6,50,0.00,,,0.00,WUHU216HW,2013-04-19 09:11:00,
2013-04-19 12:16:00,91.4,69.0,29.64,East,90,4.3,7.8,48,0.00,,,0.00,WUHU216HW,2013-04-19 09:16:00,
2013-04-19 12:21:00,91.8,67.3,29.65,ESE,113,3.6,7.8,45,0.00,,,0.00,WUHU216HW,2013-04-19 09:21:00,
2013-04-19 12:26:00,91.8,66.6,29.65,SE,135,2.9,6.5,44,0.00,,,0.00,WUHU216HW,2013-04-19 09:26:00,
2013-04-19 12:31:00,91.8,66.0,29.66,SE,135,4.5,4.5,43,0.00,,,0.00,WUHU216HW,2013-04-19 09:31:00,
2013-04-19 12:36:00,92.3,65.2,29.65,SE,135,2.9,4.5,41,0.00,,,0.00,WUHU216HW,2013-04-19 09:36:00,
2013-04-19 12:41:00,93.1,65.2,29.65,SE,135,5.8,6.7,40,0.00,,,0.00,WUHU216HW,2013-04-19 09:41:00,
2013-04-19 12:46:00,93.2,65.3,29.65,East,90,5.6,6.7,40,0.00,,,0.00,WUHU216HW,2013-04-19 09:46:00,
2013-04-19 12:51:00,92.5,64.7,29.65,ESE,113,4.9,6.7,40,0.00,,,0.00,WUHU216HW,2013-04-19 09:51:00,
2013-04-19 12:56:00,92.5,63.9,29.64,ENE,68,6.3,7.6,39,0.00,,,0.00,WUHU216HW,2013-04-19 09:56:00,
2013-04-19 13:01:00,92.3,63.7,29.64,East,90,6.9,8.1,39,0.00,,,0.00,WUHU216HW,2013-04-19 10:01:00,
2013-04-19 13:06:00,91.8,64.7,29.64,East,90,6.3,8.1,41,0.00,,,0.00,WUHU216HW,2013-04-19 10:06:00,
2013-04-19 13:11:00,91.4,67.0,29.64,East,90,8.1,8.5,45,0.00,,,0.00,WUHU216HW,2013-04-19 10:11:00,
2013-04-19 13:16:00,91.3,66.2,29.64,ESE,113,4.3,8.5,44,0.00,,,0.00,WUHU216HW,2013-04-19 10:16:00,
2013-04-19 13:21:00,91.8,68.6,29.64,SE,135,3.4,8.1,47,0.00,,,0.00,WUHU216HW,2013-04-19 10:21:00,
2013-04-19 13:26:00,92.2,67.6,29.64,ENE,68,5.4,7.2,45,0.00,,,0.00,WUHU216HW,2013-04-19 10:26:00,
2013-04-19 13:31:00,92.2,68.2,29.64,ESE,113,2.7,7.6,46,0.00,,,0.00,WUHU216HW,2013-04-19 10:31:00,
2013-04-19 13:37:00,92.0,66.8,29.63,ESE,113,5.8,7.6,44,0.00,,,0.00,WUHU216HW,2013-04-19 10:37:00,
2013-04-19 13:42:00,91.6,68.4,29.63,East,90,8.3,8.3,47,0.00,,,0.00,WUHU216HW,2013-04-19 10:42:00,
2013-04-19 13:47:00,91.6,67.2,29.63,ENE,68,7.8,8.7,45,0.00,,,0.00,WUHU216HW,2013-04-19 10:47:00,
2013-04-19 13:52:00,92.0,68.1,29.63,East,90,6.5,8.9,46,0.00,,,0.00,WUHU216HW,2013-04-19 10:52:00,
2013-04-19 13:57:00,91.6,67.8,29.64,East,90,5.1,8.9,46,0.00,,,0.00,WUHU216HW,2013-04-19 10:57:00,
2013-04-19 14:02:00,91.3,67.4,29.64,ESE,113,5.6,6.9,46,0.00,,,0.00,WUHU216HW,2013-04-19 11:02:00,
2013-04-19 14:07:00,91.3,66.2,29.64,ENE,68,3.8,6.3,44,0.00,,,0.00,WUHU216HW,2013-04-19 11:07:00,
2013-04-19 14:12:00,91.3,65.5,29.63,East,90,4.7,5.4,43,0.00,,,0.00,WUHU216HW,2013-04-19 11:12:00,
2013-04-19 14:17:00,91.4,68.2,29.62,East,90,9.8,9.8,47,0.00,,,0.00,WUHU216HW,2013-04-19 11:17:00,
2013-04-19 14:22:00,92.2,69.0,29.61,East,90,6.7,9.8,47,0.00,,,0.00,WUHU216HW,2013-04-19 11:22:00,
2013-04-19 14:27:00,92.2,69.0,29.62,NE,45,8.1,9.8,47,0.00,,,0.00,WUHU216HW,2013-04-19 11:27:00,
2013-04-19 14:32:00,92.3,67.8,29.62,East,90,5.1,9.2,45,0.00,,,0.00,WUHU216HW,2013-04-19 11:32:00,
2013-04-19 14:37:00,92.3,67.2,29.61,ESE,113,6.9,9.2,44,0.00,,,0.00,WUHU216HW,2013-04-19 11:37:00,
2013-04-19 14:42:00,92.2,66.3,29.60,ENE,68,8.7,9.6,43,0.00,,,0.00,WUHU216HW,2013-04-19 11:42:00,
2013-04-19 14:47:00,91.8,68.0,29.59,ENE,68,9.4,13.0,46,0.00,,,0.00,WUHU216HW,2013-04-19 11:47:00,
2013-04-19 14:52:00,91.6,68.4,29.59,ENE,68,8.5,13.0,47,0.00,,,0.00,WUHU216HW,2013-04-19 11:52:00,
2013-04-19 14:57:00,91.8,69.8,29.60,NE,45,6.5,10.3,49,0.00,,,0.00,WUHU216HW,2013-04-19 11:57:00,
2013-04-19 15:02:00,91.8,69.8,29.60,NE,45,12.3,12.3,49,0.00,,,0.00,WUHU216HW,2013-04-19 12:02:00,
2013-04-19 15:07:00,91.6,69.8,29.60,NE,45,7.2,12.3,49,0.00,,,0.00,WUHU216HW,2013-04-19 12:07:00,
2013-04-19 15:12:00,91.4,70.2,29.59,ESE,113,6.0,12.3,50,0.00,,,0.00,WUHU216HW,2013-04-19 12:12:00,
2013-04-19 15:17:00,91.1,70.4,29.60,East,90,7.2,12.1,51,0.00,,,0.00,WUHU216HW,2013-04-19 12:17:00,
2013-04-19 15:22:00,90.9,70.8,29.60,ENE,68,6.9,12.1,52,0.00,,,0.00,WUHU216HW,2013-04-19 12:22:00,
2013-04-19 15:27:00,91.1,70.9,29.59,NE,45,6.5,9.6,52,0.00,,,0.00,WUHU216HW,2013-04-19 12:27:00,
2013-04-19 15:32:00,91.4,70.2,29.59,NE,45,11.4,13.2,50,0.00,,,0.00,WUHU216HW,2013-04-19 12:32:00,
2013-04-19 15:37:00,90.9,70.8,29.60,NNE,23,4.7,13.2,52,0.00,,,0.00,WUHU216HW,2013-04-19 12:37:00,
2013-04-19 15:42:00,90.4,71.9,29.59,NE,45,8.1,11.4,55,0.00,,,0.00,WUHU216HW,2013-04-19 12:42:00,
2013-04-19 15:47:00,90.4,72.5,29.59,East,90,8.3,10.1,56,0.00,,,0.00,WUHU216HW,2013-04-19 12:47:00,
2013-04-19 15:52:00,89.8,72.0,29.59,ESE,113,4.0,8.9,56,0.00,,,0.00,WUHU216HW,2013-04-19 12:52:00,
2013-04-19 15:57:00,90.0,72.2,29.59,NE,45,4.7,8.9,56,0.00,,,0.00,WUHU216HW,2013-04-19 12:57:00,
2013-04-19 16:02:00,90.5,72.1,29.59,NE,45,4.5,7.2,55,0.00,,,0.00,WUHU216HW,2013-04-19 13:02:00,
2013-04-19 16:07:00,90.7,72.3,29.59,SE,135,4.0,6.9,55,0.00,,,0.00,WUHU216HW,2013-04-19 13:07:00,
2013-04-19 16:12:00,91.4,71.8,29.59,East,90,6.3,6.9,53,0.00,,,0.00,WUHU216HW,2013-04-19 13:12:00,
2013-04-19 16:17:00,92.0,71.8,29.59,ENE,68,5.4,6.3,52,0.00,,,0.00,WUHU216HW,2013-04-19 13:17:00,
2013-04-19 16:22:00,92.0,71.2,29.58,North,0,6.9,7.8,51,0.00,,,0.00,WUHU216HW,2013-04-19 13:22:00,
2013-04-19 16:27:00,90.9,70.3,29.59,NE,45,8.5,9.2,51,0.00,,,0.00,WUHU216HW,2013-04-19 13:27:00,
2013-04-19 16:32:00,90.9,70.3,29.59,East,90,5.4,9.2,51,0.00,,,0.00,WUHU216HW,2013-04-19 13:32:00,
2013-04-19 16:37:00,91.4,70.7,29.59,ENE,68,6.7,8.9,51,0.00,,,0.00,WUHU216HW,2013-04-19 13:37:00,
2013-04-19 16:42:00,91.8,70.6,29.59,ENE,68,6.0,6.7,50,0.00,,,0.00,WUHU216HW,2013-04-19 13:42:00,
2013-04-19 16:47:00,92.3,69.8,29.59,NNE,23,6.7,11.6,48,0.00,,,0.00,WUHU216HW,2013-04-19 13:47:00,
2013-04-19 16:52:00,92.2,69.6,29.59,NNE,23,8.5,11.6,48,0.00,,,0.00,WUHU216HW,2013-04-19 13:52:00,
2013-04-19 16:57:00,91.6,69.0,29.59,ENE,68,4.0,8.5,48,0.00,,,0.00,WUHU216HW,2013-04-19 13:57:00,
2013-04-19 17:02:00,91.4,69.0,29.60,NE,45,3.4,8.5,48,0.00,,,0.00,WUHU216HW,2013-04-19 14:02:00,
2013-04-19 17:07:00,91.1,69.2,29.59,North,0,8.5,9.8,49,0.00,,,0.00,WUHU216HW,2013-04-19 14:07:00,
2013-04-19 17:12:00,90.7,69.6,29.60,NNE,23,4.7,9.8,50,0.00,,,0.00,WUHU216HW,2013-04-19 14:12:00,
2013-04-19 17:17:00,90.4,69.2,29.60,ENE,68,2.5,8.5,50,0.00,,,0.00,WUHU216HW,2013-04-19 14:17:00,
2013-04-19 17:22:00,90.0,69.0,29.60,North,0,5.1,9.2,50,0.00,,,0.00,WUHU216HW,2013-04-19 14:22:00,
2013-04-19 17:27:00,89.3,68.2,29.60,NNE,23,4.5,9.8,50,0.00,,,0.00,WUHU216HW,2013-04-19 14:27:00,
2013-04-19 17:32:00,88.9,68.5,29.60,ENE,68,4.7,9.8,51,0.00,,,0.00,WUHU216HW,2013-04-19 14:32:00,
2013-04-19 17:37:00,88.6,68.7,29.60,ESE,113,3.4,7.6,52,0.00,,,0.00,WUHU216HW,2013-04-19 14:37:00,
2013-04-19 17:42:00,88.4,68.5,29.60,North,0,7.2,7.2,52,0.00,,,0.00,WUHU216HW,2013-04-19 14:42:00,
2013-04-19 17:47:00,88.0,68.2,29.60,North,0,7.2,9.2,52,0.00,,,0.00,WUHU216HW,2013-04-19 14:47:00,
2013-04-19 17:52:00,87.7,68.4,29.60,North,0,4.9,13.2,53,0.00,,,0.00,WUHU216HW,2013-04-19 14:52:00,
2013-04-19 17:57:00,87.5,68.2,29.60,North,0,5.8,13.2,53,0.00,,,0.00,WUHU216HW,2013-04-19 14:57:00,
2013-04-19 18:02:00,87.1,69.5,29.60,North,0,7.6,12.1,56,0.00,,,0.00,WUHU216HW,2013-04-19 15:02:00,
2013-04-19 18:07:00,86.9,69.3,29.60,NNE,23,8.9,10.1,56,0.00,,,0.00,WUHU216HW,2013-04-19 15:07:00,
2013-04-19 18:12:00,86.8,69.1,29.60,North,0,2.5,10.1,56,0.00,,,0.00,WUHU216HW,2013-04-19 15:12:00,
2013-04-19 18:17:00,86.6,69.0,29.60,NE,45,4.7,9.2,56,0.00,,,0.00,WUHU216HW,2013-04-19 15:17:00,
2013-04-19 18:22:00,86.4,68.9,29.60,NNE,23,5.6,9.2,56,0.00,,,0.00,WUHU216HW,2013-04-19 15:22:00,
2013-04-19 18:27:00,86.4,68.9,29.60,NNE,23,5.4,9.4,56,0.00,,,0.00,WUHU216HW,2013-04-19 15:27:00,
2013-04-19 18:32:00,86.2,69.2,29.60,NNE,23,4.7,11.2,57,0.00,,,0.00,WUHU216HW,2013-04-19 15:32:00,
2013-04-19 18:37:00,86.0,69.0,29.60,North,0,8.5,11.2,57,0.00,,,0.00,WUHU216HW,2013-04-19 15:37:00,
2013-04-19 18:42:00,85.9,68.9,29.61,North,0,7.4,9.2,57,0.00,,,0.00,WUHU216HW,2013-04-19 15:42:00,
2013-04-19 18:47:00,85.9,68.9,29.61,North,0,3.4,8.5,57,0.00,,,0.00,WUHU216HW,2013-04-19 15:47:00,
2013-04-19 18:52:00,85.9,68.9,29.61,NNE,23,5.6,8.5,57,0.00,,,0.00,WUHU216HW,2013-04-19 15:52:00,
2013-04-19 18:57:00,85.9,69.8,29.62,NNW,338,4.5,9.8,59,0.00,,,0.00,WUHU216HW,2013-04-19 15:57:00,
2013-04-19 19:02:00,85.7,70.2,29.62,NE,45,8.5,9.8,60,0.00,,,0.00,WUHU216HW,2013-04-19 16:02:00,
2013-04-19 19:07:00,85.3,69.9,29.61,NNE,23,4.3,9.8,60,0.00,,,0.00,WUHU216HW,2013-04-19 16:07:00,
2013-04-19 19:12:00,85.5,69.6,29.61,NNW,338,4.3,9.2,59,0.00,,,0.00,WUHU216HW,2013-04-19 16:12:00,
2013-04-19 19:17:00,85.3,69.9,29.61,North,0,4.7,9.2,60,0.00,,,0.00,WUHU216HW,2013-04-19 16:17:00,
2013-04-19 19:22:00,85.3,69.9,29.61,NNE,23,4.9,8.7,60,0.00,,,0.00,WUHU216HW,2013-04-19 16:22:00,
2013-04-19 19:27:00,85.1,69.8,29.62,North,0,5.4,9.4,60,0.00,,,0.00,WUHU216HW,2013-04-19 16:27:00,
2013-04-19 19:32:00,85.0,70.5,29.62,North,0,4.3,9.4,62,0.00,,,0.00,WUHU216HW,2013-04-19 16:32:00,
2013-04-19 19:37:00,84.6,70.7,29.62,North,0,1.8,11.9,63,0.00,,,0.00,WUHU216HW,2013-04-19 16:37:00,
2013-04-19 19:42:00,84.2,70.3,29.62,North,0,8.3,11.9,63,0.00,,,0.00,WUHU216HW,2013-04-19 16:42:00,
2013-04-19 19:47:00,84.2,70.3,29.63,NE,45,8.5,13.4,63,0.00,,,0.00,WUHU216HW,2013-04-19 16:47:00,
2013-04-19 19:52:00,84.1,70.6,29.63,NNW,338,5.1,13.4,64,0.00,,,0.00,WUHU216HW,2013-04-19 16:52:00,
2013-04-19 19:57:00,83.9,69.9,29.63,North,0,9.4,12.8,63,0.00,,,0.00,WUHU216HW,2013-04-19 16:57:00,
2013-04-19 20:02:00,83.9,69.9,29.63,NNE,23,3.4,14.3,63,0.00,,,0.00,WUHU216HW,2013-04-19 17:02:00,
2013-04-19 20:07:00,83.7,70.2,29.63,NNW,338,5.6,14.3,64,0.00,,,0.00,WUHU216HW,2013-04-19 17:07:00,
2013-04-19 20:12:00,83.5,69.6,29.63,NNW,338,5.4,11.4,63,0.00,,,0.00,WUHU216HW,2013-04-19 17:12:00,
2013-04-19 20:17:00,83.5,69.6,29.63,NNE,23,5.1,11.4,63,0.00,,,0.00,WUHU216HW,2013-04-19 17:17:00,
2013-04-19 20:22:00,83.7,69.3,29.63,ENE,68,2.9,11.4,62,0.00,,,0.00,WUHU216HW,2013-04-19 17:22:00,
2013-04-19 20:27:00,83.7,69.3,29.63,North,0,8.3,9.8,62,0.00,,,0.00,WUHU216HW,2013-04-19 17:27:00,
2013-04-19 20:32:00,83.7,69.3,29.63,North,0,4.7,13.9,62,0.00,,,0.00,WUHU216HW,2013-04-19 17:32:00,
2013-04-19 20:37:00,83.7,69.3,29.63,NNE,23,7.6,13.9,62,0.00,,,0.00,WUHU216HW,2013-04-19 17:37:00,
2013-04-19 20:42:00,83.7,68.9,29.63,NE,45,4.0,9.6,61,0.00,,,0.00,WUHU216HW,2013-04-19 17:42:00,
2013-04-19 20:47:00,83.7,68.9,29.63,NNW,338,5.1,9.6,61,0.00,,,0.00,WUHU216HW,2013-04-19 17:47:00,
2013-04-19 20:52:00,83.7,68.9,29.63,North,0,4.7,9.2,61,0.00,,,0.00,WUHU216HW,2013-04-19 17:52:00,
2013-04-19 20:57:00,83.7,68.9,29.63,North,0,7.6,9.6,61,0.00,,,0.00,WUHU216HW,2013-04-19 17:57:00,
2013-04-19 21:02:00,83.7,68.9,29.63,North,0,7.4,9.6,61,0.00,,,0.00,WUHU216HW,2013-04-19 18:02:00,
2013-04-19 21:07:00,83.5,68.7,29.63,NNE,23,3.8,8.9,61,0.00,,,0.00,WUHU216HW,2013-04-19 18:07:00,
2013-04-19 21:12:00,83.7,68.9,29.63,ESE,113,1.6,8.5,61,0.00,,,0.00,WUHU216HW,2013-04-19 18:12:00,
2013-04-19 21:17:00,83.9,69.0,29.63,NE,45,4.0,7.6,61,0.00,,,0.00,WUHU216HW,2013-04-19 18:17:00,
2013-04-19 21:22:00,83.9,69.0,29.63,NNE,23,9.8,9.8,61,0.00,,,0.00,WUHU216HW,2013-04-19 18:22:00,
2013-04-19 21:27:00,83.9,68.6,29.63,North,0,5.1,9.8,60,0.00,,,0.00,WUHU216HW,2013-04-19 18:27:00,
2013-04-19 21:32:00,83.7,68.4,29.63,ENE,68,3.4,9.8,60,0.00,,,0.00,WUHU216HW,2013-04-19 18:32:00,
2013-04-19 21:37:00,83.9,68.6,29.62,NNW,338,1.6,7.6,60,0.00,,,0.00,WUHU216HW,2013-04-19 18:37:00,
2013-04-19 21:42:00,83.9,68.0,29.62,NNE,23,1.3,4.7,59,0.00,,,0.00,WUHU216HW,2013-04-19 18:42:00,
2013-04-19 21:47:00,83.9,67.5,29.62,NNE,23,4.0,6.7,58,0.00,,,0.00,WUHU216HW,2013-04-19 18:47:00,
2013-04-19 21:52:00,84.1,67.2,29.62,NNE,23,6.7,6.7,57,0.00,,,0.00,WUHU216HW,2013-04-19 18:52:00,
2013-04-19 21:57:00,83.9,67.1,29.62,NE,45,1.1,7.2,57,0.00,,,0.00,WUHU216HW,2013-04-19 18:57:00,
2013-04-19 22:02:00,83.9,67.1,29.62,NNW,338,1.8,7.2,57,0.00,,,0.00,WUHU216HW,2013-04-19 19:02:00,
2013-04-19 22:07:00,83.9,66.0,29.63,NNW,338,1.1,5.1,55,0.00,,,0.00,WUHU216HW,2013-04-19 19:07:00,
2013-04-19 22:12:00,83.7,65.8,29.63,North,0,2.0,4.7,55,0.00,,,0.00,WUHU216HW,2013-04-19 19:12:00,
2013-04-19 22:17:00,83.7,65.3,29.63,North,0,1.3,4.7,54,0.00,,,0.00,WUHU216HW,2013-04-19 19:17:00,
2013-04-19 22:22:00,83.7,65.3,29.63,North,0,4.7,6.5,54,0.00,,,0.00,WUHU216HW,2013-04-19 19:22:00,
2013-04-19 22:27:00,83.9,65.4,29.63,North,0,2.2,6.5,54,0.00,,,0.00,WUHU216HW,2013-04-19 19:27:00,
2013-04-19 22:32:00,83.7,65.3,29.63,NNW,338,1.1,5.4,54,0.00,,,0.00,WUHU216HW,2013-04-19 19:32:00,
2013-04-19 22:37:00,83.5,65.1,29.63,NNW,338,1.1,4.7,54,0.00,,,0.00,WUHU216HW,2013-04-19 19:37:00,
2013-04-19 22:42:00,83.5,65.6,29.63,NNW,338,2.5,4.9,55,0.00,,,0.00,WUHU216HW,2013-04-19 19:42:00,
2013-04-19 22:47:00,83.3,65.4,29.63,NNW,338,2.9,4.9,55,0.00,,,0.00,WUHU216HW,2013-04-19 19:47:00,
2013-04-19 22:52:00,83.3,65.4,29.63,North,0,0.7,3.8,55,0.00,,,0.00,WUHU216HW,2013-04-19 19:52:00,
2013-04-19 22:57:00,83.5,65.6,29.63,NNE,23,3.8,4.7,55,0.00,,,0.00,WUHU216HW,2013-04-19 19:57:00,
2013-04-19 23:02:00,83.5,65.6,29.62,NNE,23,2.9,4.7,55,0.00,,,0.00,WUHU216HW,2013-04-19 20:02:00,
2013-04-19 23:07:00,83.5,65.6,29.62,NNE,23,2.7,5.4,55,0.00,,,0.00,WUHU216HW,2013-04-19 20:07:00,
2013-04-19 23:12:00,83.5,65.6,29.62,NNE,23,0.7,5.4,55,0.00,,,0.00,WUHU216HW,2013-04-19 20:12:00,
2013-04-19 23:17:00,83.5,65.6,29.62,NNE,23,0.9,4.5,55,0.00,,,0.00,WUHU216HW,2013-04-19 20:17:00,
2013-04-19 23:22:00,83.5,65.1,29.62,North,0,3.1,4.5,54,0.00,,,0.00,WUHU216HW,2013-04-19 20:22:00,
2013-04-19 23:27:00,83.5,65.1,29.62,North,0,3.6,6.3,54,0.00,,,0.00,WUHU216HW,2013-04-19 20:27:00,
2013-04-19 23:32:00,83.5,65.1,29.61,North,0,2.0,6.3,54,0.00,,,0.00,WUHU216HW,2013-04-19 20:32:00,
2013-04-19 23:37:00,83.5,65.1,29.62,NNE,23,4.7,6.3,54,0.00,,,0.00,WUHU216HW,2013-04-19 20:37:00,
2013-04-19 23:42:00,83.5,65.1,29.61,NNW,338,3.4,6.3,54,0.00,,,0.00,WUHU216HW,2013-04-19 20:42:00,
2013-04-19 23:47:00,83.3,64.9,29.61,NNE,23,4.7,6.3,54,0.00,,,0.00,WUHU216HW,2013-04-19 20:47:00,
2013-04-19 23:52:00,83.3,64.9,29.61,North,0,6.0,6.3,54,0.00,,,0.00,WUHU216HW,2013-04-19 20:52:00,
2013-04-19 23:57:00,83.3,64.9,29.61,North,0,4.0,6.3,54,0.00,,,0.00,WUHU216HW,2013-04-19 20:57:00,